MMCS/CJS METAR and TAF weather

Enter ICAO airport designator
Station Type Date Time Source
MMCS METAR 2021/04/18 02:48 UTC NOAA

MMCS 180248Z 05017KT 10SM FEW050 11/M02 A3004 RMK SLP133 52019 936 8/500


Station Type Date Time Source
MMCS Decoded METAR 2021/04/18 02:48 UTC NOAA

Ciudad Juarez International , Mexico (MMCS) 31-38N 106-26W
Apr 17, 2021 - 10:48 PM EDT / 2021.04.18 0248 UTC
Wind: from the NE (050 degrees) at 20 MPH (17 KT):0
Visibility: 10 mile(s):0
Sky conditions: mostly clear
Temperature: 51 F (11 C)
Dew Point: 28 F (-2 C)
Relative Humidity: 40%
Pressure (altimeter): 30.04 in. Hg (1017 hPa)
Pressure tendency: 0.06 inches (1.9 hPa) higher than three hours ago
ob: MMCS 180248Z 05017KT 10SM FEW050 11/M02 A3004 RMK SLP133 52019 936 8/500
cycle: 3

Station Type Date Time Source
MMCS TAF 2021/04/17 18:27 UTC NOAA

TAF TAF MMCS 171724Z 1718/1818 13015G25KT 6SM DU SCT030 BKN080 BKN200
FM180300 13012KT 6SM HZ SCT020 BKN080
FM181800 13015KT P6SM SCT030 SCT100

Example: see airport list